createdAt,value
2023-07-15T00:01:32.254Z,9.00
2023-07-15T00:03:58.923Z,8.02
2023-07-15T00:06:26.056Z,7.07
2023-07-15T00:08:53.525Z,5.95
2023-07-15T00:11:31.308Z,5.20
2023-07-15T00:13:59.203Z,6.60
2023-07-15T00:16:27.752Z,6.95
2023-07-15T00:18:54.688Z,8.77
2023-07-15T00:21:24.190Z,5.78
2023-07-15T00:23:56.846Z,7.63
2023-07-15T00:26:24.952Z,4.68
2023-07-15T00:28:51.798Z,7.40
2023-07-15T00:31:20.056Z,5.43
2023-07-15T00:33:47.407Z,5.97
2023-07-15T00:36:15.080Z,5.03
2023-07-15T00:38:43.239Z,6.30
2023-07-15T00:41:20.643Z,5.75
2023-07-15T00:44:15.803Z,4.40
2023-07-15T00:47:00.673Z,7.60
2023-07-15T00:49:28.714Z,6.07
2023-07-15T00:52:05.193Z,7.53
2023-07-15T00:54:36.404Z,6.05
2023-07-15T00:57:03.053Z,4.87
2023-07-15T00:59:30.733Z,8.00
2023-07-15T01:01:57.629Z,4.78
2023-07-15T01:04:24.117Z,7.05
2023-07-15T01:06:54.916Z,6.07
2023-07-15T01:09:22.422Z,6.67
2023-07-15T01:11:49.406Z,5.93
2023-07-15T01:14:15.952Z,5.93
2023-07-15T01:16:42.391Z,5.20
2023-07-15T01:19:09.656Z,9.25
2023-07-15T01:21:36.880Z,5.80
2023-07-15T01:24:04.463Z,7.88
2023-07-15T01:26:32.363Z,4.70
2023-07-15T01:28:58.830Z,7.82
2023-07-15T01:31:26.865Z,10.40
2023-07-15T01:33:53.561Z,5.33
2023-07-15T01:36:20.022Z,5.70
2023-07-15T01:38:46.491Z,5.20
2023-07-15T01:41:13.039Z,6.70
2023-07-15T01:43:39.589Z,4.20
2023-07-15T01:46:06.431Z,5.37
2023-07-15T01:48:32.860Z,7.82
2023-07-15T01:50:59.278Z,7.22
2023-07-15T01:53:25.745Z,6.75
2023-07-15T01:55:52.204Z,4.05
2023-07-15T01:58:18.726Z,7.17
2023-07-15T02:00:45.233Z,6.28
2023-07-15T02:03:11.803Z,5.88
2023-07-15T02:05:38.429Z,5.55
2023-07-15T02:08:05.095Z,5.43
2023-07-15T02:10:33.102Z,7.63
2023-07-15T02:12:59.548Z,7.65
2023-07-15T02:15:26.051Z,5.63
2023-07-15T02:17:52.538Z,6.28
2023-07-15T02:20:20.327Z,5.97
2023-07-15T02:22:46.781Z,4.87
2023-07-15T02:25:13.370Z,6.03
2023-07-15T02:27:39.951Z,5.18
2023-07-15T02:30:10.257Z,6.47
2023-07-15T02:32:42.054Z,6.35
2023-07-15T02:35:14.954Z,5.53
2023-07-15T02:37:43.291Z,11.23
2023-07-15T02:40:11.379Z,6.13
2023-07-15T02:42:38.863Z,9.52
2023-07-15T02:45:09.028Z,6.85
2023-07-15T02:47:35.765Z,6.90
2023-07-15T02:50:08.954Z,5.57
2023-07-15T02:52:37.507Z,5.47
2023-07-15T02:55:06.005Z,5.13
2023-07-15T02:57:33.388Z,7.35
2023-07-15T03:00:00.277Z,5.83
2023-07-15T03:02:27.138Z,6.88
2023-07-15T03:04:53.688Z,6.70
2023-07-15T03:07:20.562Z,9.30
2023-07-15T03:09:47.117Z,5.43
2023-07-15T03:12:13.643Z,5.13
2023-07-15T03:14:43.164Z,5.50
2023-07-15T03:17:10.974Z,6.63
2023-07-15T03:19:38.594Z,7.65
2023-07-15T03:22:05.929Z,7.75
2023-07-15T03:24:32.664Z,5.93
2023-07-15T03:26:59.111Z,5.57
2023-07-15T03:29:25.564Z,8.93
2023-07-15T03:31:52.138Z,8.43
2023-07-15T03:34:19.554Z,4.90
2023-07-15T03:36:46.396Z,8.40
2023-07-15T03:39:12.836Z,5.85
2023-07-15T03:41:39.338Z,7.80
2023-07-15T03:44:05.830Z,6.80
2023-07-15T03:46:32.389Z,8.70
2023-07-15T03:48:58.891Z,7.83
2023-07-15T03:51:25.368Z,5.90
2023-07-15T03:53:51.899Z,5.40
2023-07-15T03:56:18.351Z,6.53
2023-07-15T03:58:44.783Z,5.22
2023-07-15T04:01:11.886Z,5.33
2023-07-15T04:03:38.424Z,5.75
2023-07-15T04:06:05.202Z,6.43
2023-07-15T04:08:31.674Z,5.20
2023-07-15T04:10:58.115Z,4.95
2023-07-15T04:13:24.539Z,5.13
2023-07-15T04:15:51.047Z,5.13
2023-07-15T04:18:17.947Z,6.43
2023-07-15T04:20:44.602Z,6.20
2023-07-15T04:23:11.158Z,5.63
2023-07-15T04:25:37.717Z,6.33
2023-07-15T04:28:05.214Z,5.03
2023-07-15T04:30:31.694Z,5.38
2023-07-15T04:32:58.151Z,6.35
2023-07-15T04:35:24.672Z,5.13
2023-07-15T04:37:52.060Z,4.63
2023-07-15T04:40:18.576Z,6.00
2023-07-15T04:42:46.720Z,6.20
2023-07-15T04:45:13.504Z,5.53
2023-07-15T04:47:40.515Z,5.85
2023-07-15T04:50:07.373Z,5.33
2023-07-15T04:52:33.891Z,5.65
2023-07-15T04:55:00.369Z,5.38
2023-07-15T04:57:26.905Z,5.20
2023-07-15T04:59:53.978Z,4.25
2023-07-15T05:02:20.459Z,4.67
2023-07-15T05:04:46.935Z,4.90
2023-07-15T05:07:13.431Z,3.60
2023-07-15T05:09:41.034Z,4.55
2023-07-15T05:12:07.857Z,5.47
2023-07-15T05:14:35.320Z,6.07
2023-07-15T05:17:01.755Z,4.25
2023-07-15T05:19:28.185Z,7.20
2023-07-15T05:21:54.900Z,4.53
2023-07-15T05:24:21.352Z,4.22
2023-07-15T05:26:47.845Z,3.50
2023-07-15T05:29:14.369Z,5.28
2023-07-15T05:31:40.885Z,8.10
2023-07-15T05:34:07.343Z,4.68
2023-07-15T05:36:33.875Z,5.82
2023-07-15T05:39:00.332Z,6.10
2023-07-15T05:41:26.757Z,6.18
2023-07-15T05:43:53.204Z,3.10
2023-07-15T05:46:19.660Z,6.72
2023-07-15T05:48:49.319Z,3.90
2023-07-15T05:51:16.436Z,4.97
2023-07-15T05:53:44.291Z,5.07
2023-07-15T05:56:10.761Z,3.95
2023-07-15T05:58:37.233Z,3.83
2023-07-15T06:01:05.236Z,4.20
2023-07-15T06:03:32.186Z,3.47
2023-07-15T06:06:05.141Z,3.03
2023-07-15T06:08:34.841Z,4.18
2023-07-15T06:11:01.361Z,3.92
2023-07-15T06:13:30.218Z,3.88
2023-07-15T06:15:57.125Z,3.03
2023-07-15T06:18:24.391Z,3.00
2023-07-15T06:20:51.215Z,3.22
2023-07-15T06:23:18.102Z,3.85
2023-07-15T06:25:44.581Z,3.60
2023-07-15T06:28:11.068Z,3.37
2023-07-15T06:30:37.580Z,3.08
2023-07-15T06:33:04.184Z,3.17
2023-07-15T06:35:30.653Z,5.80
2023-07-15T06:37:57.113Z,2.78
2023-07-15T06:40:23.598Z,2.10
2023-07-15T06:42:50.066Z,2.53
2023-07-15T06:45:21.759Z,1.98
2023-07-15T06:47:48.400Z,3.28
2023-07-15T06:50:14.892Z,1.80
2023-07-15T06:52:41.329Z,2.17
2023-07-15T06:55:08.108Z,3.05
2023-07-15T06:57:34.564Z,3.22
2023-07-15T07:00:01.009Z,2.42
2023-07-15T07:02:27.516Z,3.25
2023-07-15T07:04:53.995Z,2.83
2023-07-15T07:07:23.510Z,4.15
2023-07-15T07:09:50.204Z,3.15
2023-07-15T07:12:16.659Z,2.20
2023-07-15T07:14:43.138Z,3.90
2023-07-15T07:17:09.589Z,3.03
2023-07-15T07:19:36.149Z,3.28
2023-07-15T07:22:02.592Z,2.30
2023-07-15T07:24:29.039Z,2.85
2023-07-15T07:26:55.497Z,2.15
2023-07-15T07:29:23.412Z,3.27
2023-07-15T07:31:50.020Z,2.08
2023-07-15T07:34:16.450Z,2.95
2023-07-15T07:36:42.876Z,1.90
2023-07-15T07:39:09.339Z,4.05
2023-07-15T07:41:35.759Z,3.87
2023-07-15T07:44:02.190Z,2.10
2023-07-15T07:46:28.781Z,4.35
2023-07-15T07:48:55.243Z,2.33
2023-07-15T07:51:21.767Z,2.15
2023-07-15T07:53:48.179Z,4.00
2023-07-15T07:56:14.700Z,2.88
2023-07-15T07:58:41.521Z,2.00
2023-07-15T08:01:08.049Z,2.03
2023-07-15T08:03:34.727Z,2.13
2023-07-15T08:06:01.270Z,2.33
2023-07-15T08:08:27.779Z,1.88
2023-07-15T08:10:54.496Z,3.60
2023-07-15T08:13:21.267Z,2.70
2023-07-15T08:15:47.953Z,2.70
2023-07-15T08:18:14.565Z,2.93
2023-07-15T08:20:43.809Z,2.53
2023-07-15T08:23:10.353Z,1.80
2023-07-15T08:25:39.290Z,3.15
2023-07-15T08:28:05.907Z,2.28
2023-07-15T08:30:37.128Z,2.97
2023-07-15T08:33:07.619Z,2.95
2023-07-15T08:35:35.612Z,2.13
2023-07-15T08:38:02.214Z,3.78
2023-07-15T08:40:30.265Z,3.42
2023-07-15T08:42:56.801Z,2.40
2023-07-15T08:45:25.695Z,2.70
2023-07-15T08:47:52.278Z,2.45
2023-07-15T08:50:19.415Z,2.08
2023-07-15T08:52:46.257Z,1.73
2023-07-15T08:55:14.386Z,2.47
2023-07-15T08:57:41.287Z,3.45
2023-07-15T09:00:13.037Z,3.88
2023-07-15T09:02:40.369Z,2.05
2023-07-15T09:05:09.258Z,2.42
2023-07-15T09:07:46.663Z,2.50
2023-07-15T09:10:14.224Z,2.85
2023-07-15T09:12:45.312Z,3.15
2023-07-15T09:15:12.273Z,2.22
2023-07-15T09:17:38.849Z,2.75
2023-07-15T09:20:21.741Z,2.40
2023-07-15T09:22:59.919Z,3.55
2023-07-15T09:25:26.949Z,4.07
2023-07-15T09:27:54.608Z,4.63
2023-07-15T09:30:21.605Z,2.50
2023-07-15T09:32:48.996Z,3.17
2023-07-15T09:35:15.966Z,3.30
2023-07-15T09:37:42.586Z,2.25
2023-07-15T09:40:09.994Z,4.53
2023-07-15T09:42:56.295Z,2.92
2023-07-15T09:45:37.183Z,3.77
2023-07-15T09:48:08.728Z,2.53
2023-07-15T09:50:36.908Z,3.88
2023-07-15T09:53:05.595Z,3.22
2023-07-15T09:55:33.534Z,2.83
2023-07-15T09:58:09.895Z,4.20
2023-07-15T10:00:40.266Z,2.75
2023-07-15T10:03:09.551Z,2.70
2023-07-15T10:05:36.227Z,3.80
2023-07-15T10:08:02.849Z,2.90
2023-07-15T10:10:29.345Z,2.33
2023-07-15T10:12:56.137Z,2.72
2023-07-15T10:15:24.797Z,3.20
2023-07-15T10:17:51.329Z,3.45
2023-07-15T10:20:21.548Z,4.05
2023-07-15T10:22:50.445Z,3.20
2023-07-15T10:25:17.714Z,4.05
2023-07-15T10:27:44.389Z,5.65
2023-07-15T10:30:26.584Z,5.22
2023-07-15T10:33:02.629Z,3.75
2023-07-15T10:35:30.532Z,3.37
2023-07-15T10:38:04.001Z,3.95
2023-07-15T10:40:50.242Z,4.95
2023-07-15T10:43:25.387Z,5.82
2023-07-15T10:45:56.156Z,4.43
2023-07-15T10:48:23.489Z,4.57
2023-07-15T10:50:53.927Z,4.72
2023-07-15T10:53:27.110Z,3.53
2023-07-15T10:56:07.666Z,4.50
2023-07-15T10:58:35.581Z,3.15
2023-07-15T11:01:10.354Z,5.80
2023-07-15T11:03:44.243Z,3.33
2023-07-15T11:06:12.004Z,4.88
2023-07-15T11:08:40.931Z,4.28
2023-07-15T11:11:11.366Z,5.30
2023-07-15T11:13:39.422Z,6.53
2023-07-15T11:16:06.215Z,3.20
2023-07-15T11:18:32.702Z,3.42
2023-07-15T11:21:01.407Z,4.18
2023-07-15T11:23:30.059Z,4.22
2023-07-15T11:25:58.626Z,4.27
2023-07-15T11:28:25.298Z,3.08
2023-07-15T11:30:51.863Z,5.60
2023-07-15T11:33:18.416Z,3.97
2023-07-15T11:35:46.860Z,4.55
2023-07-15T11:38:28.310Z,4.20
2023-07-15T11:41:00.208Z,4.10
2023-07-15T11:43:28.275Z,3.63
2023-07-15T11:45:56.096Z,4.05
2023-07-15T11:48:24.181Z,3.85
2023-07-15T11:50:50.818Z,6.13
2023-07-15T11:53:30.610Z,3.67
2023-07-15T11:55:58.057Z,3.78
2023-07-15T11:58:46.720Z,5.88
2023-07-15T12:01:15.543Z,3.70
2023-07-15T12:03:42.223Z,3.57
2023-07-15T12:06:20.193Z,4.85
2023-07-15T12:09:11.994Z,5.20
2023-07-15T12:11:39.064Z,3.70
2023-07-15T12:14:07.359Z,5.60
2023-07-15T12:16:35.615Z,3.90
2023-07-15T12:19:03.695Z,3.83
2023-07-15T12:21:31.526Z,5.72
2023-07-15T12:23:58.866Z,4.60
2023-07-15T12:26:25.564Z,5.28
2023-07-15T12:28:52.957Z,4.27
2023-07-15T12:31:20.009Z,3.67
2023-07-15T12:33:46.628Z,5.60
2023-07-15T12:36:15.278Z,5.13
2023-07-15T12:38:42.280Z,4.35
2023-07-15T12:41:09.602Z,5.10
2023-07-15T12:43:37.156Z,4.18
2023-07-15T12:46:04.224Z,3.20
2023-07-15T12:48:31.407Z,4.97
2023-07-15T12:50:58.113Z,3.83
2023-07-15T12:53:25.736Z,4.87
2023-07-15T12:55:55.415Z,4.80
2023-07-15T12:58:22.752Z,3.85
2023-07-15T13:00:50.050Z,4.35
2023-07-15T13:03:16.946Z,4.35
2023-07-15T13:05:43.600Z,3.10
2023-07-15T13:08:11.966Z,5.75
2023-07-15T13:10:38.457Z,5.15
2023-07-15T13:13:04.881Z,3.28
2023-07-15T13:15:31.378Z,4.97
2023-07-15T13:17:57.830Z,4.97
2023-07-15T13:20:24.393Z,4.22
2023-07-15T13:22:50.910Z,3.80
2023-07-15T13:25:17.354Z,4.38
2023-07-15T13:27:43.770Z,3.75
2023-07-15T13:30:11.660Z,4.33
2023-07-15T13:32:38.933Z,5.03
2023-07-15T13:35:06.329Z,4.55
2023-07-15T13:37:32.844Z,4.53
2023-07-15T13:39:59.301Z,5.82
2023-07-15T13:42:25.847Z,4.83
2023-07-15T13:44:52.327Z,4.65
2023-07-15T13:47:18.937Z,4.80
2023-07-15T13:49:45.762Z,6.18
2023-07-15T13:52:12.564Z,4.57
2023-07-15T13:54:39.126Z,4.10
2023-07-15T13:57:05.965Z,6.50
2023-07-15T13:59:32.561Z,5.70
2023-07-15T14:01:59.039Z,3.63
2023-07-15T14:04:25.589Z,3.75
2023-07-15T14:06:52.147Z,5.70
2023-07-15T14:09:18.648Z,3.17
2023-07-15T14:11:46.110Z,5.22
2023-07-15T14:14:15.834Z,3.10
2023-07-15T14:16:42.470Z,3.97
2023-07-15T14:19:09.062Z,3.60
2023-07-15T14:21:35.508Z,3.42
2023-07-15T14:24:04.896Z,6.55
2023-07-15T14:26:32.675Z,3.42
2023-07-15T14:28:59.205Z,5.50
2023-07-15T14:31:25.958Z,3.70
2023-07-15T14:33:55.357Z,4.65
2023-07-15T14:36:22.960Z,4.25
2023-07-15T14:38:49.776Z,2.75
2023-07-15T14:41:17.727Z,3.67
2023-07-15T14:43:44.331Z,4.23
2023-07-15T14:46:10.847Z,4.53
2023-07-15T14:48:39.156Z,4.03
2023-07-15T14:51:05.789Z,5.40
2023-07-15T14:53:32.699Z,4.15
2023-07-15T14:55:59.373Z,3.63
2023-07-15T14:58:26.043Z,7.13
2023-07-15T15:00:52.777Z,2.72
2023-07-15T15:03:19.457Z,3.90
2023-07-15T15:05:46.140Z,6.75
2023-07-15T15:08:13.115Z,8.13
2023-07-15T15:10:39.913Z,4.82
2023-07-15T15:13:06.691Z,5.07
2023-07-15T15:15:33.380Z,5.53
2023-07-15T15:17:59.873Z,10.77
2023-07-15T15:20:26.325Z,7.47
2023-07-15T15:22:52.817Z,8.77
2023-07-15T15:25:19.281Z,7.07
2023-07-15T15:27:45.700Z,6.95
2023-07-15T15:30:15.019Z,6.63
2023-07-15T15:32:42.264Z,8.90
2023-07-15T15:35:09.226Z,5.25
2023-07-15T15:37:35.777Z,9.60
2023-07-15T15:40:02.220Z,9.25
2023-07-15T15:42:28.672Z,8.00
2023-07-15T15:44:57.215Z,11.60
2023-07-15T15:47:23.756Z,12.25
2023-07-15T15:49:50.212Z,14.52
2023-07-15T15:52:16.681Z,8.27
2023-07-15T15:54:43.234Z,6.95
2023-07-15T15:57:09.718Z,6.73
2023-07-15T15:59:36.141Z,4.90
2023-07-15T16:02:02.636Z,6.38
2023-07-15T16:04:29.097Z,5.68
2023-07-15T16:06:55.802Z,8.05
2023-07-15T16:09:22.362Z,5.63
2023-07-15T16:11:48.797Z,6.78
2023-07-15T16:14:15.290Z,8.10
2023-07-15T16:16:41.835Z,8.18
2023-07-15T16:19:10.649Z,8.02
2023-07-15T16:21:37.488Z,9.57
2023-07-15T16:24:04.150Z,8.63
2023-07-15T16:26:30.630Z,7.88
2023-07-15T16:28:57.088Z,6.25
2023-07-15T16:31:23.551Z,4.95
2023-07-15T16:33:50.008Z,3.80
2023-07-15T16:36:16.435Z,6.20
2023-07-15T16:38:42.909Z,7.78
2023-07-15T16:41:09.374Z,5.50
2023-07-15T16:43:36.322Z,5.97
2023-07-15T16:46:03.047Z,5.10
2023-07-15T16:48:29.577Z,5.90
2023-07-15T16:50:56.010Z,4.43
2023-07-15T16:53:23.234Z,4.05
2023-07-15T16:55:52.588Z,4.10
2023-07-15T16:58:20.348Z,9.33
2023-07-15T17:00:46.772Z,4.38
2023-07-15T17:03:13.406Z,6.82
2023-07-15T17:05:39.921Z,4.47
2023-07-15T17:08:06.397Z,4.32
2023-07-15T17:10:32.872Z,4.93
2023-07-15T17:12:59.321Z,5.63
2023-07-15T17:15:25.840Z,5.47
2023-07-15T17:17:52.648Z,8.88
2023-07-15T17:20:19.248Z,4.28
2023-07-15T17:22:45.701Z,5.17
2023-07-15T17:25:12.181Z,3.90
2023-07-15T17:27:38.629Z,4.05
2023-07-15T17:30:05.692Z,5.88
2023-07-15T17:32:32.152Z,5.55
2023-07-15T17:34:58.882Z,5.53
2023-07-15T17:37:28.024Z,5.13
2023-07-15T17:39:54.663Z,6.90
2023-07-15T17:42:21.103Z,5.15
2023-07-15T17:44:47.546Z,3.80
2023-07-15T17:47:14.009Z,4.27
2023-07-15T17:49:40.430Z,5.15
2023-07-15T17:52:09.593Z,7.43
2023-07-15T17:54:36.053Z,4.65
2023-07-15T17:57:02.691Z,5.47
2023-07-15T17:59:29.128Z,8.10
2023-07-15T18:01:55.692Z,4.57
2023-07-15T18:04:22.243Z,4.35
2023-07-15T18:06:48.707Z,4.68
2023-07-15T18:09:15.144Z,6.13
2023-07-15T18:11:41.825Z,6.83
2023-07-15T18:14:08.485Z,6.38
2023-07-15T18:16:35.132Z,7.28
2023-07-15T18:19:01.776Z,5.40
2023-07-15T18:21:28.204Z,4.45
2023-07-15T18:23:54.640Z,8.10
2023-07-15T18:26:21.106Z,4.85
2023-07-15T18:28:48.599Z,4.68
2023-07-15T18:31:15.265Z,7.15
2023-07-15T18:33:42.020Z,3.75
2023-07-15T18:36:08.444Z,4.40
2023-07-15T18:38:34.894Z,3.45
2023-07-15T18:41:01.457Z,6.82
2023-07-15T18:43:27.913Z,4.28
2023-07-15T18:45:54.594Z,3.72
2023-07-15T18:48:21.024Z,5.07
2023-07-15T18:50:47.476Z,4.18
2023-07-15T18:53:13.925Z,3.80
2023-07-15T18:55:40.354Z,4.68
2023-07-15T18:58:06.840Z,4.82
2023-07-15T19:00:33.299Z,2.90
2023-07-15T19:02:59.880Z,3.92
2023-07-15T19:05:26.461Z,5.10
2023-07-15T19:07:52.870Z,3.85
2023-07-15T19:10:19.327Z,4.70
2023-07-15T19:12:45.745Z,3.53
2023-07-15T19:15:12.213Z,6.78
2023-07-15T19:17:38.676Z,3.63
2023-07-15T19:20:06.792Z,4.30
2023-07-15T19:22:33.317Z,4.50
2023-07-15T19:24:59.895Z,4.10
2023-07-15T19:27:26.462Z,5.47
2023-07-15T19:29:52.990Z,5.38
2023-07-15T19:32:19.611Z,5.53
2023-07-15T19:34:46.139Z,3.78
2023-07-15T19:37:12.593Z,3.80
2023-07-15T19:39:39.028Z,4.35
2023-07-15T19:42:05.853Z,4.85
2023-07-15T19:44:32.356Z,3.40
2023-07-15T19:46:59.456Z,6.88
2023-07-15T19:49:26.038Z,4.47
2023-07-15T19:51:54.103Z,5.20
2023-07-15T19:54:20.561Z,5.88
2023-07-15T19:56:47.012Z,4.13
2023-07-15T19:59:13.472Z,5.57
2023-07-15T20:01:40.021Z,4.27
2023-07-15T20:04:07.598Z,4.43
2023-07-15T20:06:34.237Z,7.90
2023-07-15T20:09:00.704Z,11.18
2023-07-15T20:11:27.360Z,11.70
2023-07-15T20:13:53.804Z,6.33
2023-07-15T20:16:20.659Z,6.72
2023-07-15T20:18:47.301Z,7.80
2023-07-15T20:21:13.812Z,6.53
2023-07-15T20:23:40.298Z,6.85
2023-07-15T20:26:06.765Z,6.37
2023-07-15T20:28:33.225Z,7.78
2023-07-15T20:31:00.464Z,9.00
2023-07-15T20:33:27.084Z,6.30
2023-07-15T20:35:53.700Z,7.03
2023-07-15T20:38:20.193Z,6.23
2023-07-15T20:40:56.462Z,5.57
2023-07-15T20:43:24.981Z,5.22
2023-07-15T20:45:51.718Z,5.30
2023-07-15T20:48:18.554Z,7.35
2023-07-15T20:50:45.076Z,7.57
2023-07-15T20:53:11.558Z,8.48
2023-07-15T20:55:42.058Z,6.35
2023-07-15T20:58:08.776Z,5.47
2023-07-15T21:00:35.427Z,6.63
2023-07-15T21:03:02.172Z,7.37
2023-07-15T21:05:28.827Z,7.45
2023-07-15T21:07:55.304Z,6.53
2023-07-15T21:10:22.000Z,6.40
2023-07-15T21:12:48.476Z,4.70
2023-07-15T21:15:14.949Z,4.50
2023-07-15T21:17:41.446Z,8.93
2023-07-15T21:20:08.541Z,5.50
2023-07-15T21:22:35.077Z,5.82
2023-07-15T21:25:01.561Z,6.80
2023-07-15T21:27:28.026Z,7.03
2023-07-15T21:29:54.536Z,7.68
2023-07-15T21:32:21.005Z,5.13
2023-07-15T21:34:50.841Z,7.43
2023-07-15T21:37:17.361Z,3.67
2023-07-15T21:39:43.909Z,9.90
2023-07-15T21:42:10.481Z,7.03
2023-07-15T21:44:36.996Z,8.38
2023-07-15T21:47:03.619Z,5.97
2023-07-15T21:49:30.215Z,4.90
2023-07-15T21:51:56.699Z,5.90
2023-07-15T21:54:23.710Z,5.68
2023-07-15T21:56:50.353Z,6.93
2023-07-15T21:59:16.931Z,6.80
2023-07-15T22:01:43.667Z,7.03
2023-07-15T22:04:10.333Z,8.80
2023-07-15T22:06:36.771Z,5.68
2023-07-15T22:09:03.368Z,6.35
2023-07-15T22:11:29.840Z,6.45
2023-07-15T22:13:56.331Z,7.78
2023-07-15T22:16:22.848Z,8.43
2023-07-15T22:18:49.320Z,6.03
2023-07-15T22:21:15.793Z,7.95
2023-07-15T22:23:42.214Z,5.25
2023-07-15T22:26:09.590Z,7.55
2023-07-15T22:28:37.040Z,7.07
2023-07-15T22:31:03.816Z,7.63
2023-07-15T22:33:30.446Z,6.10
2023-07-15T22:35:56.904Z,6.03
2023-07-15T22:38:23.680Z,7.20
2023-07-15T22:40:50.216Z,5.13
2023-07-15T22:43:19.198Z,6.15
2023-07-15T22:45:55.930Z,7.80
2023-07-15T22:48:24.298Z,8.25
2023-07-15T22:50:51.003Z,14.35
2023-07-15T22:53:17.749Z,7.00
2023-07-15T22:55:44.237Z,11.60
2023-07-15T22:58:10.685Z,8.13
2023-07-15T23:00:37.205Z,6.22
2023-07-15T23:03:04.103Z,6.45
2023-07-15T23:05:30.792Z,6.87
2023-07-15T23:07:57.337Z,7.78
2023-07-15T23:10:23.999Z,8.07
2023-07-15T23:12:50.527Z,7.35
2023-07-15T23:15:17.110Z,9.52
2023-07-15T23:17:43.554Z,10.53
2023-07-15T23:20:10.138Z,8.20
2023-07-15T23:22:37.380Z,6.85
2023-07-15T23:25:04.313Z,6.32
2023-07-15T23:27:31.086Z,8.18
2023-07-15T23:29:57.535Z,5.53
2023-07-15T23:32:26.371Z,4.85
2023-07-15T23:34:59.046Z,8.30
2023-07-15T23:37:25.943Z,5.60
2023-07-15T23:39:56.562Z,7.47
2023-07-15T23:42:24.322Z,6.73
2023-07-15T23:44:51.144Z,5.03
2023-07-15T23:47:17.610Z,6.90
2023-07-15T23:49:47.599Z,6.22
2023-07-15T23:52:15.153Z,5.57
2023-07-15T23:54:41.666Z,6.23
2023-07-15T23:57:08.382Z,8.18
2023-07-15T23:59:34.831Z,5.38
